sensor_id;sensor_type;location;lat;lon;timestamp;P1;durP1;ratioP1;P2;durP2;ratioP2
1479;SDS011;732;51.698;4.886;2022-09-30T00:01:43;12.40;;;7.50;;
1479;SDS011;732;51.698;4.886;2022-09-30T00:04:14;10.77;;;7.27;;
1479;SDS011;732;51.698;4.886;2022-09-30T00:06:45;13.60;;;8.13;;
1479;SDS011;732;51.698;4.886;2022-09-30T00:09:14;12.20;;;7.30;;
1479;SDS011;732;51.698;4.886;2022-09-30T00:11:43;10.10;;;7.50;;
1479;SDS011;732;51.698;4.886;2022-09-30T00:14:13;13.17;;;8.40;;
1479;SDS011;732;51.698;4.886;2022-09-30T00:16:45;14.13;;;7.60;;
1479;SDS011;732;51.698;4.886;2022-09-30T00:19:14;10.30;;;7.03;;
1479;SDS011;732;51.698;4.886;2022-09-30T00:21:43;13.77;;;7.47;;
1479;SDS011;732;51.698;4.886;2022-09-30T00:24:11;18.30;;;8.40;;
1479;SDS011;732;51.698;4.886;2022-09-30T00:26:39;11.23;;;6.73;;
1479;SDS011;732;51.698;4.886;2022-09-30T00:29:08;13.80;;;8.40;;
1479;SDS011;732;51.698;4.886;2022-09-30T00:31:37;10.10;;;6.77;;
1479;SDS011;732;51.698;4.886;2022-09-30T00:34:07;23.80;;;8.00;;
1479;SDS011;732;51.698;4.886;2022-09-30T00:36:38;12.33;;;7.07;;
1479;SDS011;732;51.698;4.886;2022-09-30T00:39:10;11.67;;;7.20;;
1479;SDS011;732;51.698;4.886;2022-09-30T00:41:41;14.80;;;7.63;;
1479;SDS011;732;51.698;4.886;2022-09-30T00:47:40;10.80;;;7.37;;
1479;SDS011;732;51.698;4.886;2022-09-30T00:53:13;10.83;;;7.57;;
1479;SDS011;732;51.698;4.886;2022-09-30T00:55:47;13.17;;;8.80;;
1479;SDS011;732;51.698;4.886;2022-09-30T00:58:24;12.10;;;8.10;;
1479;SDS011;732;51.698;4.886;2022-09-30T01:00:57;12.77;;;7.77;;
1479;SDS011;732;51.698;4.886;2022-09-30T01:03:29;13.20;;;8.27;;
1479;SDS011;732;51.698;4.886;2022-09-30T01:06:01;13.47;;;9.60;;
1479;SDS011;732;51.698;4.886;2022-09-30T01:08:31;11.03;;;8.20;;
1479;SDS011;732;51.698;4.886;2022-09-30T01:11:03;13.80;;;7.80;;
1479;SDS011;732;51.698;4.886;2022-09-30T01:13:34;12.27;;;7.77;;
1479;SDS011;732;51.698;4.886;2022-09-30T01:16:09;9.67;;;7.27;;
1479;SDS011;732;51.698;4.886;2022-09-30T01:18:57;11.03;;;7.33;;
1479;SDS011;732;51.698;4.886;2022-09-30T01:21:54;12.57;;;8.33;;
1479;SDS011;732;51.698;4.886;2022-09-30T01:25:04;12.43;;;7.77;;
1479;SDS011;732;51.698;4.886;2022-09-30T01:31:49;9.90;;;7.00;;
1479;SDS011;732;51.698;4.886;2022-09-30T01:34:32;12.80;;;8.10;;
1479;SDS011;732;51.698;4.886;2022-09-30T01:37:10;9.60;;;7.43;;
1479;SDS011;732;51.698;4.886;2022-09-30T01:39:49;13.37;;;8.17;;
1479;SDS011;732;51.698;4.886;2022-09-30T01:42:30;11.80;;;8.17;;
1479;SDS011;732;51.698;4.886;2022-09-30T01:45:07;11.30;;;8.10;;
1479;SDS011;732;51.698;4.886;2022-09-30T01:47:44;10.57;;;7.33;;
1479;SDS011;732;51.698;4.886;2022-09-30T01:50:18;10.67;;;6.90;;
1479;SDS011;732;51.698;4.886;2022-09-30T01:52:53;9.97;;;6.73;;
1479;SDS011;732;51.698;4.886;2022-09-30T01:55:30;11.30;;;8.00;;
1479;SDS011;732;51.698;4.886;2022-09-30T01:58:06;7.37;;;6.40;;
1479;SDS011;732;51.698;4.886;2022-09-30T02:00:41;10.00;;;6.93;;
1479;SDS011;732;51.698;4.886;2022-09-30T02:03:18;9.77;;;7.17;;
1479;SDS011;732;51.698;4.886;2022-09-30T02:05:52;10.00;;;6.80;;
1479;SDS011;732;51.698;4.886;2022-09-30T02:08:29;9.80;;;7.60;;
1479;SDS011;732;51.698;4.886;2022-09-30T02:11:08;11.13;;;7.63;;
1479;SDS011;732;51.698;4.886;2022-09-30T02:13:44;11.57;;;7.10;;
1479;SDS011;732;51.698;4.886;2022-09-30T02:16:20;9.83;;;6.80;;
1479;SDS011;732;51.698;4.886;2022-09-30T02:18:54;11.23;;;6.70;;
1479;SDS011;732;51.698;4.886;2022-09-30T02:21:29;10.70;;;6.90;;
1479;SDS011;732;51.698;4.886;2022-09-30T02:24:05;9.37;;;6.70;;
1479;SDS011;732;51.698;4.886;2022-09-30T02:26:39;10.90;;;7.93;;
1479;SDS011;732;51.698;4.886;2022-09-30T02:29:14;11.20;;;7.20;;
1479;SDS011;732;51.698;4.886;2022-09-30T02:31:48;12.60;;;7.50;;
1479;SDS011;732;51.698;4.886;2022-09-30T02:34:25;16.97;;;7.70;;
1479;SDS011;732;51.698;4.886;2022-09-30T02:37:00;12.17;;;7.70;;
1479;SDS011;732;51.698;4.886;2022-09-30T02:39:36;10.50;;;7.13;;
1479;SDS011;732;51.698;4.886;2022-09-30T02:42:11;9.97;;;6.23;;
1479;SDS011;732;51.698;4.886;2022-09-30T02:44:46;10.23;;;7.00;;
1479;SDS011;732;51.698;4.886;2022-09-30T02:47:20;10.53;;;6.70;;
1479;SDS011;732;51.698;4.886;2022-09-30T02:49:58;13.37;;;8.03;;
1479;SDS011;732;51.698;4.886;2022-09-30T02:52:35;12.07;;;7.90;;
1479;SDS011;732;51.698;4.886;2022-09-30T02:55:20;14.73;;;8.13;;
1479;SDS011;732;51.698;4.886;2022-09-30T02:58:03;14.00;;;8.70;;
1479;SDS011;732;51.698;4.886;2022-09-30T03:00:38;10.00;;;7.27;;
1479;SDS011;732;51.698;4.886;2022-09-30T03:03:08;11.63;;;7.37;;
1479;SDS011;732;51.698;4.886;2022-09-30T03:05:44;13.57;;;8.77;;
1479;SDS011;732;51.698;4.886;2022-09-30T03:08:12;13.60;;;8.43;;
1479;SDS011;732;51.698;4.886;2022-09-30T03:10:41;16.17;;;8.73;;
1479;SDS011;732;51.698;4.886;2022-09-30T03:13:17;11.43;;;7.63;;
1479;SDS011;732;51.698;4.886;2022-09-30T03:16:12;12.20;;;7.43;;
1479;SDS011;732;51.698;4.886;2022-09-30T03:18:56;14.73;;;7.83;;
1479;SDS011;732;51.698;4.886;2022-09-30T03:21:47;14.03;;;7.80;;
1479;SDS011;732;51.698;4.886;2022-09-30T03:24:34;14.00;;;8.57;;
1479;SDS011;732;51.698;4.886;2022-09-30T03:27:37;14.53;;;8.30;;
1479;SDS011;732;51.698;4.886;2022-09-30T03:30:15;11.47;;;7.67;;
1479;SDS011;732;51.698;4.886;2022-09-30T03:32:54;13.03;;;8.20;;
1479;SDS011;732;51.698;4.886;2022-09-30T03:35:36;17.57;;;8.80;;
1479;SDS011;732;51.698;4.886;2022-09-30T03:38:19;15.80;;;7.70;;
1479;SDS011;732;51.698;4.886;2022-09-30T03:40:59;14.73;;;8.63;;
1479;SDS011;732;51.698;4.886;2022-09-30T03:43:35;14.60;;;8.83;;
1479;SDS011;732;51.698;4.886;2022-09-30T03:46:12;14.20;;;8.20;;
1479;SDS011;732;51.698;4.886;2022-09-30T03:48:49;13.47;;;8.60;;
1479;SDS011;732;51.698;4.886;2022-09-30T03:51:22;12.83;;;8.77;;
1479;SDS011;732;51.698;4.886;2022-09-30T03:53:52;14.70;;;7.93;;
1479;SDS011;732;51.698;4.886;2022-09-30T03:56:25;12.67;;;8.90;;
1479;SDS011;732;51.698;4.886;2022-09-30T03:58:54;14.47;;;8.67;;
1479;SDS011;732;51.698;4.886;2022-09-30T04:01:23;16.47;;;9.47;;
1479;SDS011;732;51.698;4.886;2022-09-30T04:03:52;17.63;;;10.13;;
1479;SDS011;732;51.698;4.886;2022-09-30T04:06:21;16.87;;;10.07;;
1479;SDS011;732;51.698;4.886;2022-09-30T04:08:52;18.37;;;10.30;;
1479;SDS011;732;51.698;4.886;2022-09-30T04:11:21;16.90;;;9.73;;
1479;SDS011;732;51.698;4.886;2022-09-30T04:13:49;14.07;;;9.23;;
1479;SDS011;732;51.698;4.886;2022-09-30T04:16:18;14.60;;;9.60;;
1479;SDS011;732;51.698;4.886;2022-09-30T04:18:46;14.43;;;9.80;;
1479;SDS011;732;51.698;4.886;2022-09-30T04:21:15;16.57;;;9.77;;
1479;SDS011;732;51.698;4.886;2022-09-30T04:23:43;16.17;;;9.60;;
1479;SDS011;732;51.698;4.886;2022-09-30T04:26:14;13.47;;;9.90;;
1479;SDS011;732;51.698;4.886;2022-09-30T04:28:45;21.00;;;11.00;;
1479;SDS011;732;51.698;4.886;2022-09-30T04:31:14;19.17;;;11.53;;
1479;SDS011;732;51.698;4.886;2022-09-30T04:33:44;21.93;;;10.80;;
1479;SDS011;732;51.698;4.886;2022-09-30T04:36:13;21.97;;;11.03;;
1479;SDS011;732;51.698;4.886;2022-09-30T04:38:41;19.23;;;11.30;;
1479;SDS011;732;51.698;4.886;2022-09-30T04:41:12;17.57;;;10.87;;
1479;SDS011;732;51.698;4.886;2022-09-30T04:43:43;24.07;;;12.93;;
1479;SDS011;732;51.698;4.886;2022-09-30T04:46:13;27.83;;;14.00;;
1479;SDS011;732;51.698;4.886;2022-09-30T04:48:42;24.00;;;12.63;;
1479;SDS011;732;51.698;4.886;2022-09-30T04:51:11;27.17;;;14.27;;
1479;SDS011;732;51.698;4.886;2022-09-30T04:53:40;24.53;;;13.30;;
1479;SDS011;732;51.698;4.886;2022-09-30T04:56:10;26.53;;;13.43;;
1479;SDS011;732;51.698;4.886;2022-09-30T04:58:40;30.77;;;15.37;;
1479;SDS011;732;51.698;4.886;2022-09-30T05:01:09;29.40;;;14.70;;
1479;SDS011;732;51.698;4.886;2022-09-30T05:03:39;32.87;;;13.47;;
1479;SDS011;732;51.698;4.886;2022-09-30T05:06:09;26.43;;;15.47;;
1479;SDS011;732;51.698;4.886;2022-09-30T05:08:38;29.97;;;16.27;;
1479;SDS011;732;51.698;4.886;2022-09-30T05:11:13;30.20;;;16.87;;
1479;SDS011;732;51.698;4.886;2022-09-30T05:13:45;34.97;;;16.87;;
1479;SDS011;732;51.698;4.886;2022-09-30T05:16:15;33.27;;;16.90;;
1479;SDS011;732;51.698;4.886;2022-09-30T05:18:44;32.67;;;17.27;;
1479;SDS011;732;51.698;4.886;2022-09-30T05:21:13;29.27;;;15.93;;
1479;SDS011;732;51.698;4.886;2022-09-30T05:23:45;31.43;;;16.70;;
1479;SDS011;732;51.698;4.886;2022-09-30T05:26:14;32.40;;;16.40;;
1479;SDS011;732;51.698;4.886;2022-09-30T05:28:42;24.53;;;15.23;;
1479;SDS011;732;51.698;4.886;2022-09-30T05:31:13;28.90;;;16.77;;
1479;SDS011;732;51.698;4.886;2022-09-30T05:33:41;34.87;;;18.23;;
1479;SDS011;732;51.698;4.886;2022-09-30T05:36:11;32.17;;;16.57;;
1479;SDS011;732;51.698;4.886;2022-09-30T05:38:41;30.63;;;16.93;;
1479;SDS011;732;51.698;4.886;2022-09-30T05:41:10;35.97;;;18.60;;
1479;SDS011;732;51.698;4.886;2022-09-30T05:43:40;33.30;;;17.30;;
1479;SDS011;732;51.698;4.886;2022-09-30T05:46:16;33.53;;;18.77;;
1479;SDS011;732;51.698;4.886;2022-09-30T05:48:51;37.63;;;18.63;;
1479;SDS011;732;51.698;4.886;2022-09-30T05:51:20;32.80;;;18.00;;
1479;SDS011;732;51.698;4.886;2022-09-30T05:53:49;38.57;;;18.50;;
1479;SDS011;732;51.698;4.886;2022-09-30T05:56:18;33.33;;;18.17;;
1479;SDS011;732;51.698;4.886;2022-09-30T05:58:46;36.17;;;20.30;;
1479;SDS011;732;51.698;4.886;2022-09-30T06:01:17;38.27;;;19.80;;
1479;SDS011;732;51.698;4.886;2022-09-30T06:03:46;33.07;;;18.70;;
1479;SDS011;732;51.698;4.886;2022-09-30T06:06:14;34.80;;;19.20;;
1479;SDS011;732;51.698;4.886;2022-09-30T06:08:44;37.30;;;18.30;;
1479;SDS011;732;51.698;4.886;2022-09-30T06:11:13;36.70;;;18.70;;
1479;SDS011;732;51.698;4.886;2022-09-30T06:13:44;33.77;;;18.83;;
1479;SDS011;732;51.698;4.886;2022-09-30T06:16:14;37.03;;;17.30;;
1479;SDS011;732;51.698;4.886;2022-09-30T06:18:45;32.13;;;17.17;;
1479;SDS011;732;51.698;4.886;2022-09-30T06:21:14;32.20;;;17.13;;
1479;SDS011;732;51.698;4.886;2022-09-30T06:23:43;35.00;;;18.70;;
1479;SDS011;732;51.698;4.886;2022-09-30T06:26:12;32.27;;;18.20;;
1479;SDS011;732;51.698;4.886;2022-09-30T06:28:41;33.57;;;17.90;;
1479;SDS011;732;51.698;4.886;2022-09-30T06:31:10;32.40;;;18.50;;
1479;SDS011;732;51.698;4.886;2022-09-30T06:33:39;32.40;;;17.50;;
1479;SDS011;732;51.698;4.886;2022-09-30T06:36:12;31.40;;;17.27;;
1479;SDS011;732;51.698;4.886;2022-09-30T06:38:40;38.13;;;19.00;;
1479;SDS011;732;51.698;4.886;2022-09-30T06:41:09;31.83;;;16.03;;
1479;SDS011;732;51.698;4.886;2022-09-30T06:43:38;30.40;;;16.67;;
1479;SDS011;732;51.698;4.886;2022-09-30T06:46:28;34.63;;;17.20;;
1479;SDS011;732;51.698;4.886;2022-09-30T06:48:57;30.27;;;17.90;;
1479;SDS011;732;51.698;4.886;2022-09-30T06:51:40;36.00;;;18.93;;
1479;SDS011;732;51.698;4.886;2022-09-30T06:54:09;28.90;;;16.73;;
1479;SDS011;732;51.698;4.886;2022-09-30T06:56:38;33.50;;;17.77;;
1479;SDS011;732;51.698;4.886;2022-09-30T06:59:07;31.20;;;16.73;;
1479;SDS011;732;51.698;4.886;2022-09-30T07:01:36;32.07;;;17.70;;
1479;SDS011;732;51.698;4.886;2022-09-30T07:04:04;33.87;;;18.00;;
1479;SDS011;732;51.698;4.886;2022-09-30T07:06:35;29.20;;;16.63;;
1479;SDS011;732;51.698;4.886;2022-09-30T07:09:06;29.27;;;16.90;;
1479;SDS011;732;51.698;4.886;2022-09-30T07:11:36;29.77;;;17.73;;
1479;SDS011;732;51.698;4.886;2022-09-30T07:14:05;34.90;;;19.33;;
1479;SDS011;732;51.698;4.886;2022-09-30T07:16:35;33.53;;;18.57;;
1479;SDS011;732;51.698;4.886;2022-09-30T07:19:05;30.83;;;17.50;;
1479;SDS011;732;51.698;4.886;2022-09-30T07:21:34;31.60;;;17.67;;
1479;SDS011;732;51.698;4.886;2022-09-30T07:24:03;32.30;;;17.10;;
1479;SDS011;732;51.698;4.886;2022-09-30T07:26:33;29.20;;;18.90;;
1479;SDS011;732;51.698;4.886;2022-09-30T07:29:01;27.93;;;17.17;;
1479;SDS011;732;51.698;4.886;2022-09-30T07:31:30;28.20;;;18.57;;
1479;SDS011;732;51.698;4.886;2022-09-30T07:34:01;32.93;;;18.83;;
1479;SDS011;732;51.698;4.886;2022-09-30T07:36:32;30.40;;;17.50;;
1479;SDS011;732;51.698;4.886;2022-09-30T07:39:05;36.80;;;18.67;;
1479;SDS011;732;51.698;4.886;2022-09-30T07:41:37;33.17;;;17.30;;
1479;SDS011;732;51.698;4.886;2022-09-30T07:44:07;35.87;;;17.60;;
1479;SDS011;732;51.698;4.886;2022-09-30T07:46:38;32.73;;;17.90;;
1479;SDS011;732;51.698;4.886;2022-09-30T07:49:10;28.20;;;16.90;;
1479;SDS011;732;51.698;4.886;2022-09-30T07:51:51;32.73;;;17.77;;
1479;SDS011;732;51.698;4.886;2022-09-30T07:54:22;38.43;;;19.30;;
1479;SDS011;732;51.698;4.886;2022-09-30T07:56:54;28.00;;;18.20;;
1479;SDS011;732;51.698;4.886;2022-09-30T07:59:37;28.87;;;18.00;;
1479;SDS011;732;51.698;4.886;2022-09-30T08:02:10;30.60;;;18.70;;
1479;SDS011;732;51.698;4.886;2022-09-30T08:04:42;28.20;;;17.57;;
1479;SDS011;732;51.698;4.886;2022-09-30T08:07:11;34.10;;;18.97;;
1479;SDS011;732;51.698;4.886;2022-09-30T08:09:42;29.43;;;17.67;;
1479;SDS011;732;51.698;4.886;2022-09-30T08:12:11;29.57;;;17.87;;
1479;SDS011;732;51.698;4.886;2022-09-30T08:14:40;29.47;;;18.87;;
1479;SDS011;732;51.698;4.886;2022-09-30T08:17:09;29.73;;;17.53;;
1479;SDS011;732;51.698;4.886;2022-09-30T08:19:38;30.97;;;17.60;;
1479;SDS011;732;51.698;4.886;2022-09-30T08:22:09;27.10;;;16.87;;
1479;SDS011;732;51.698;4.886;2022-09-30T08:24:39;30.97;;;17.87;;
1479;SDS011;732;51.698;4.886;2022-09-30T08:27:07;28.83;;;17.50;;
1479;SDS011;732;51.698;4.886;2022-09-30T08:29:37;24.77;;;14.50;;
1479;SDS011;732;51.698;4.886;2022-09-30T08:32:28;27.07;;;15.37;;
1479;SDS011;732;51.698;4.886;2022-09-30T08:34:56;21.93;;;14.10;;
1479;SDS011;732;51.698;4.886;2022-09-30T08:37:25;19.57;;;13.23;;
1479;SDS011;732;51.698;4.886;2022-09-30T08:39:53;20.03;;;11.50;;
1479;SDS011;732;51.698;4.886;2022-09-30T08:42:25;20.60;;;13.47;;
1479;SDS011;732;51.698;4.886;2022-09-30T08:45:18;16.10;;;11.73;;
1479;SDS011;732;51.698;4.886;2022-09-30T08:47:59;24.97;;;15.37;;
1479;SDS011;732;51.698;4.886;2022-09-30T08:50:44;22.60;;;15.60;;
1479;SDS011;732;51.698;4.886;2022-09-30T08:53:25;26.30;;;16.40;;
1479;SDS011;732;51.698;4.886;2022-09-30T08:55:56;22.30;;;12.37;;
1479;SDS011;732;51.698;4.886;2022-09-30T08:58:29;21.50;;;13.67;;
1479;SDS011;732;51.698;4.886;2022-09-30T09:01:03;20.53;;;13.17;;
1479;SDS011;732;51.698;4.886;2022-09-30T09:03:43;18.40;;;13.00;;
1479;SDS011;732;51.698;4.886;2022-09-30T09:06:16;16.07;;;11.30;;
1479;SDS011;732;51.698;4.886;2022-09-30T09:09:04;17.07;;;11.47;;
1479;SDS011;732;51.698;4.886;2022-09-30T09:12:00;14.30;;;10.30;;
1479;SDS011;732;51.698;4.886;2022-09-30T09:14:41;16.07;;;10.90;;
1479;SDS011;732;51.698;4.886;2022-09-30T09:17:36;11.07;;;8.97;;
1479;SDS011;732;51.698;4.886;2022-09-30T09:20:47;9.63;;;7.10;;
1479;SDS011;732;51.698;4.886;2022-09-30T09:23:21;13.00;;;7.60;;
1479;SDS011;732;51.698;4.886;2022-09-30T09:25:50;10.20;;;7.50;;
1479;SDS011;732;51.698;4.886;2022-09-30T09:28:26;12.40;;;7.23;;
1479;SDS011;732;51.698;4.886;2022-09-30T09:31:02;11.40;;;7.53;;
1479;SDS011;732;51.698;4.886;2022-09-30T09:33:34;8.63;;;7.40;;
1479;SDS011;732;51.698;4.886;2022-09-30T09:36:14;8.10;;;6.77;;
1479;SDS011;732;51.698;4.886;2022-09-30T09:39:06;8.20;;;5.97;;
1479;SDS011;732;51.698;4.886;2022-09-30T09:41:48;8.83;;;5.93;;
1479;SDS011;732;51.698;4.886;2022-09-30T09:44:29;6.83;;;4.60;;
1479;SDS011;732;51.698;4.886;2022-09-30T09:47:07;7.70;;;5.47;;
1479;SDS011;732;51.698;4.886;2022-09-30T09:49:42;5.97;;;4.70;;
1479;SDS011;732;51.698;4.886;2022-09-30T09:55:31;5.90;;;4.93;;
1479;SDS011;732;51.698;4.886;2022-09-30T09:58:05;4.57;;;4.10;;
1479;SDS011;732;51.698;4.886;2022-09-30T10:00:39;4.70;;;3.93;;
1479;SDS011;732;51.698;4.886;2022-09-30T10:03:23;5.53;;;3.43;;
1479;SDS011;732;51.698;4.886;2022-09-30T10:06:02;5.23;;;4.00;;
1479;SDS011;732;51.698;4.886;2022-09-30T10:08:34;3.43;;;3.10;;
1479;SDS011;732;51.698;4.886;2022-09-30T10:11:16;4.90;;;3.60;;
1479;SDS011;732;51.698;4.886;2022-09-30T10:13:50;4.67;;;3.83;;
1479;SDS011;732;51.698;4.886;2022-09-30T10:16:24;7.80;;;4.17;;
1479;SDS011;732;51.698;4.886;2022-09-30T10:18:57;5.70;;;4.17;;
1479;SDS011;732;51.698;4.886;2022-09-30T10:21:35;4.70;;;4.07;;
1479;SDS011;732;51.698;4.886;2022-09-30T10:24:17;4.67;;;3.40;;
1479;SDS011;732;51.698;4.886;2022-09-30T10:26:53;4.20;;;3.80;;
1479;SDS011;732;51.698;4.886;2022-09-30T10:29:24;6.60;;;3.57;;
1479;SDS011;732;51.698;4.886;2022-09-30T10:31:57;4.47;;;4.07;;
1479;SDS011;732;51.698;4.886;2022-09-30T10:34:27;3.90;;;3.50;;
1479;SDS011;732;51.698;4.886;2022-09-30T10:37:01;6.83;;;3.57;;
1479;SDS011;732;51.698;4.886;2022-09-30T10:39:38;4.00;;;3.60;;
1479;SDS011;732;51.698;4.886;2022-09-30T10:42:11;8.00;;;3.20;;
1479;SDS011;732;51.698;4.886;2022-09-30T10:44:52;5.33;;;3.67;;
1479;SDS011;732;51.698;4.886;2022-09-30T10:47:24;4.70;;;3.63;;
1479;SDS011;732;51.698;4.886;2022-09-30T10:50:01;5.87;;;4.10;;
1479;SDS011;732;51.698;4.886;2022-09-30T10:52:36;5.07;;;3.93;;
1479;SDS011;732;51.698;4.886;2022-09-30T10:55:24;5.03;;;4.50;;
1479;SDS011;732;51.698;4.886;2022-09-30T10:57:59;6.27;;;3.80;;
1479;SDS011;732;51.698;4.886;2022-09-30T11:00:50;5.63;;;3.87;;
1479;SDS011;732;51.698;4.886;2022-09-30T11:03:26;5.43;;;4.17;;
1479;SDS011;732;51.698;4.886;2022-09-30T11:06:01;5.50;;;3.87;;
1479;SDS011;732;51.698;4.886;2022-09-30T11:08:32;4.63;;;3.83;;
1479;SDS011;732;51.698;4.886;2022-09-30T11:11:10;4.53;;;3.73;;
1479;SDS011;732;51.698;4.886;2022-09-30T11:13:43;4.10;;;3.50;;
1479;SDS011;732;51.698;4.886;2022-09-30T11:16:18;7.50;;;4.30;;
1479;SDS011;732;51.698;4.886;2022-09-30T11:18:59;5.60;;;3.90;;
1479;SDS011;732;51.698;4.886;2022-09-30T11:21:38;3.63;;;3.27;;
1479;SDS011;732;51.698;4.886;2022-09-30T11:24:18;5.00;;;3.70;;
1479;SDS011;732;51.698;4.886;2022-09-30T11:26:57;5.00;;;3.90;;
1479;SDS011;732;51.698;4.886;2022-09-30T11:29:42;5.87;;;4.03;;
1479;SDS011;732;51.698;4.886;2022-09-30T11:32:29;5.00;;;3.87;;
1479;SDS011;732;51.698;4.886;2022-09-30T11:35:15;4.80;;;3.40;;
1479;SDS011;732;51.698;4.886;2022-09-30T11:38:04;4.30;;;3.80;;
1479;SDS011;732;51.698;4.886;2022-09-30T11:40:50;6.13;;;4.27;;
1479;SDS011;732;51.698;4.886;2022-09-30T11:43:31;4.07;;;3.67;;
1479;SDS011;732;51.698;4.886;2022-09-30T11:49:25;5.13;;;3.80;;
1479;SDS011;732;51.698;4.886;2022-09-30T11:52:11;5.03;;;3.90;;
1479;SDS011;732;51.698;4.886;2022-09-30T11:54:53;5.97;;;4.13;;
1479;SDS011;732;51.698;4.886;2022-09-30T11:57:43;6.50;;;4.90;;
1479;SDS011;732;51.698;4.886;2022-09-30T12:00:22;6.30;;;4.47;;
1479;SDS011;732;51.698;4.886;2022-09-30T12:02:52;6.23;;;4.00;;
1479;SDS011;732;51.698;4.886;2022-09-30T12:05:27;6.93;;;3.83;;
1479;SDS011;732;51.698;4.886;2022-09-30T12:08:05;4.30;;;3.27;;
1479;SDS011;732;51.698;4.886;2022-09-30T12:10:42;5.70;;;4.30;;
1479;SDS011;732;51.698;4.886;2022-09-30T12:13:17;4.20;;;2.80;;
1479;SDS011;732;51.698;4.886;2022-09-30T12:15:52;3.27;;;2.50;;
1479;SDS011;732;51.698;4.886;2022-09-30T12:18:24;1.90;;;1.80;;
1479;SDS011;732;51.698;4.886;2022-09-30T12:21:02;1.50;;;1.20;;
1479;SDS011;732;51.698;4.886;2022-09-30T12:23:42;2.30;;;1.70;;
1479;SDS011;732;51.698;4.886;2022-09-30T12:26:15;2.30;;;1.50;;
1479;SDS011;732;51.698;4.886;2022-09-30T12:28:47;2.13;;;1.50;;
1479;SDS011;732;51.698;4.886;2022-09-30T12:34:46;1.83;;;1.47;;
1479;SDS011;732;51.698;4.886;2022-09-30T12:37:31;1.80;;;1.40;;
1479;SDS011;732;51.698;4.886;2022-09-30T12:40:17;3.43;;;2.07;;
1479;SDS011;732;51.698;4.886;2022-09-30T12:43:25;2.50;;;2.00;;
1479;SDS011;732;51.698;4.886;2022-09-30T12:46:15;3.30;;;2.13;;
1479;SDS011;732;51.698;4.886;2022-09-30T12:48:52;2.90;;;1.90;;
1479;SDS011;732;51.698;4.886;2022-09-30T12:51:24;2.77;;;1.53;;
1479;SDS011;732;51.698;4.886;2022-09-30T12:53:59;2.20;;;1.70;;
1479;SDS011;732;51.698;4.886;2022-09-30T12:56:36;2.90;;;1.90;;
1479;SDS011;732;51.698;4.886;2022-09-30T12:59:10;3.60;;;2.40;;
1479;SDS011;732;51.698;4.886;2022-09-30T13:01:42;2.90;;;2.40;;
1479;SDS011;732;51.698;4.886;2022-09-30T13:04:16;4.43;;;2.10;;
1479;SDS011;732;51.698;4.886;2022-09-30T13:07:08;3.77;;;2.07;;
1479;SDS011;732;51.698;4.886;2022-09-30T13:09:56;3.30;;;2.17;;
1479;SDS011;732;51.698;4.886;2022-09-30T13:13:11;3.77;;;2.20;;
1479;SDS011;732;51.698;4.886;2022-09-30T13:15:49;3.97;;;2.47;;
1479;SDS011;732;51.698;4.886;2022-09-30T13:21:28;2.70;;;2.07;;
1479;SDS011;732;51.698;4.886;2022-09-30T13:23:57;2.20;;;1.73;;
1479;SDS011;732;51.698;4.886;2022-09-30T13:26:31;2.53;;;1.83;;
1479;SDS011;732;51.698;4.886;2022-09-30T13:32:29;2.70;;;2.13;;
1479;SDS011;732;51.698;4.886;2022-09-30T13:35:01;5.60;;;2.60;;
1479;SDS011;732;51.698;4.886;2022-09-30T13:38:09;4.20;;;2.50;;
1479;SDS011;732;51.698;4.886;2022-09-30T13:40:44;3.93;;;2.30;;
1479;SDS011;732;51.698;4.886;2022-09-30T13:43:33;2.77;;;2.10;;
1479;SDS011;732;51.698;4.886;2022-09-30T13:46:10;3.70;;;2.80;;
1479;SDS011;732;51.698;4.886;2022-09-30T13:48:50;3.80;;;2.70;;
1479;SDS011;732;51.698;4.886;2022-09-30T13:51:26;3.67;;;2.80;;
1479;SDS011;732;51.698;4.886;2022-09-30T13:53:59;5.00;;;2.83;;
1479;SDS011;732;51.698;4.886;2022-09-30T13:56:35;3.87;;;2.80;;
1479;SDS011;732;51.698;4.886;2022-09-30T13:59:10;3.30;;;2.83;;
1479;SDS011;732;51.698;4.886;2022-09-30T14:12:01;3.23;;;2.10;;
1479;SDS011;732;51.698;4.886;2022-09-30T14:18:19;3.57;;;2.33;;
1479;SDS011;732;51.698;4.886;2022-09-30T14:21:23;3.17;;;2.23;;
1479;SDS011;732;51.698;4.886;2022-09-30T14:24:11;3.30;;;3.00;;
1479;SDS011;732;51.698;4.886;2022-09-30T14:26:47;3.90;;;2.50;;
1479;SDS011;732;51.698;4.886;2022-09-30T14:29:44;3.47;;;2.97;;
1479;SDS011;732;51.698;4.886;2022-09-30T14:32:25;3.60;;;2.30;;
1479;SDS011;732;51.698;4.886;2022-09-30T14:34:55;4.60;;;3.03;;
1479;SDS011;732;51.698;4.886;2022-09-30T14:37:26;3.50;;;3.17;;
1479;SDS011;732;51.698;4.886;2022-09-30T14:40:00;3.87;;;3.00;;
1479;SDS011;732;51.698;4.886;2022-09-30T14:42:30;5.87;;;3.70;;
1479;SDS011;732;51.698;4.886;2022-09-30T14:45:02;4.63;;;2.73;;
1479;SDS011;732;51.698;4.886;2022-09-30T14:47:35;3.10;;;2.67;;
1479;SDS011;732;51.698;4.886;2022-09-30T14:50:09;5.10;;;3.07;;
1479;SDS011;732;51.698;4.886;2022-09-30T14:52:44;4.67;;;3.47;;
1479;SDS011;732;51.698;4.886;2022-09-30T14:55:23;4.77;;;3.40;;
1479;SDS011;732;51.698;4.886;2022-09-30T15:00:58;4.40;;;3.30;;
1479;SDS011;732;51.698;4.886;2022-09-30T15:03:34;3.23;;;2.93;;
1479;SDS011;732;51.698;4.886;2022-09-30T15:06:18;6.47;;;3.37;;
1479;SDS011;732;51.698;4.886;2022-09-30T15:08:49;4.90;;;3.30;;
1479;SDS011;732;51.698;4.886;2022-09-30T15:11:30;3.47;;;2.87;;
1479;SDS011;732;51.698;4.886;2022-09-30T15:14:07;3.63;;;3.10;;
1479;SDS011;732;51.698;4.886;2022-09-30T15:16:44;3.63;;;2.70;;
1479;SDS011;732;51.698;4.886;2022-09-30T15:19:16;3.70;;;3.07;;
1479;SDS011;732;51.698;4.886;2022-09-30T15:21:48;5.30;;;2.97;;
1479;SDS011;732;51.698;4.886;2022-09-30T15:24:19;4.93;;;3.43;;
1479;SDS011;732;51.698;4.886;2022-09-30T15:26:52;4.10;;;3.03;;
1479;SDS011;732;51.698;4.886;2022-09-30T15:29:22;4.40;;;3.17;;
1479;SDS011;732;51.698;4.886;2022-09-30T15:31:52;3.30;;;2.70;;
1479;SDS011;732;51.698;4.886;2022-09-30T15:34:27;6.20;;;3.60;;
1479;SDS011;732;51.698;4.886;2022-09-30T15:36:57;4.93;;;3.50;;
1479;SDS011;732;51.698;4.886;2022-09-30T15:39:32;4.10;;;2.90;;
1479;SDS011;732;51.698;4.886;2022-09-30T15:42:34;4.20;;;2.80;;
1479;SDS011;732;51.698;4.886;2022-09-30T15:45:22;2.83;;;2.60;;
1479;SDS011;732;51.698;4.886;2022-09-30T15:48:01;6.87;;;3.50;;
1479;SDS011;732;51.698;4.886;2022-09-30T15:50:36;4.87;;;3.50;;
1479;SDS011;732;51.698;4.886;2022-09-30T15:53:13;3.90;;;3.13;;
1479;SDS011;732;51.698;4.886;2022-09-30T15:55:50;3.30;;;3.00;;
1479;SDS011;732;51.698;4.886;2022-09-30T15:58:33;5.13;;;3.60;;
1479;SDS011;732;51.698;4.886;2022-09-30T16:01:16;3.37;;;3.00;;
1479;SDS011;732;51.698;4.886;2022-09-30T16:03:49;3.33;;;3.03;;
1479;SDS011;732;51.698;4.886;2022-09-30T16:06:22;3.20;;;2.93;;
1479;SDS011;732;51.698;4.886;2022-09-30T16:08:58;3.53;;;2.80;;
1479;SDS011;732;51.698;4.886;2022-09-30T16:11:30;3.93;;;2.93;;
1479;SDS011;732;51.698;4.886;2022-09-30T16:14:04;3.70;;;3.03;;
1479;SDS011;732;51.698;4.886;2022-09-30T16:16:38;3.97;;;3.33;;
1479;SDS011;732;51.698;4.886;2022-09-30T16:19:07;4.83;;;3.23;;
1479;SDS011;732;51.698;4.886;2022-09-30T16:21:44;3.70;;;3.40;;
1479;SDS011;732;51.698;4.886;2022-09-30T16:27:21;5.80;;;3.10;;
1479;SDS011;732;51.698;4.886;2022-09-30T16:29:59;4.77;;;3.43;;
1479;SDS011;732;51.698;4.886;2022-09-30T16:32:30;3.50;;;3.20;;
1479;SDS011;732;51.698;4.886;2022-09-30T16:35:03;5.23;;;3.23;;
1479;SDS011;732;51.698;4.886;2022-09-30T16:37:40;7.63;;;4.30;;
1479;SDS011;732;51.698;4.886;2022-09-30T16:40:15;4.07;;;3.00;;
1479;SDS011;732;51.698;4.886;2022-09-30T16:42:48;5.30;;;3.57;;
1479;SDS011;732;51.698;4.886;2022-09-30T16:45:21;3.63;;;3.10;;
1479;SDS011;732;51.698;4.886;2022-09-30T16:47:50;5.60;;;3.30;;
1479;SDS011;732;51.698;4.886;2022-09-30T16:50:27;4.17;;;3.00;;
1479;SDS011;732;51.698;4.886;2022-09-30T16:53:01;4.23;;;2.90;;
1479;SDS011;732;51.698;4.886;2022-09-30T16:55:30;5.57;;;3.70;;